DLH8LJ EDDS-EDDF
Flight info
| Callsign | DLH8LJ |
|---|---|
| Flight time | 0h 25m |
| Altitude | 18000 |
| Route | ETASA4B ETASA T163 SPESA SPESA5B |
| Aircraft | A320/M-SDE3FGHIRWY/LB1 |
Departure
| Time | 2026-05-06 14:14 |
|---|---|
| Airport | Stuttgart Airport (EDDS) |
Arrival
| Time | 2026-05-06 14:40 |
|---|---|
| Airport | Frankfurt Main Airport (EDDF) |
| Time | Latitude | Longitude | Altitude | Speed | Heading |
|---|---|---|---|---|---|
| 2026-05-06 13:39 | 48.68884 | 9.19359 | 1316 ft | 0 kts | 344° |
| 2026-05-06 14:02 | 48.68865 | 9.19367 | 1315 ft | 4 kts | 344° |
| 2026-05-06 14:02 | 48.68840 | 9.19377 | 1314 ft | 4 kts | 353° |
| 2026-05-06 14:02 | 48.68815 | 9.19375 | 1314 ft | 4 kts | 31° |
| 2026-05-06 14:02 | 48.68802 | 9.19354 | 1314 ft | 0 kts | 74° |
| 2026-05-06 14:04 | 48.68805 | 9.19369 | 1314 ft | 5 kts | 75° |
| 2026-05-06 14:05 | 48.68820 | 9.19452 | 1312 ft | 10 kts | 74° |
| 2026-05-06 14:05 | 48.68841 | 9.19562 | 1310 ft | 12 kts | 75° |
| 2026-05-06 14:05 | 48.68865 | 9.19692 | 1308 ft | 14 kts | 73° |
| 2026-05-06 14:05 | 48.68889 | 9.19829 | 1304 ft | 12 kts | 86° |
| 2026-05-06 14:06 | 48.68830 | 9.19902 | 1298 ft | 11 kts | 147° |
| 2026-05-06 14:06 | 48.68822 | 9.19984 | 1295 ft | 7 kts | 62° |
| 2026-05-06 14:06 | 48.68838 | 9.20036 | 1295 ft | 5 kts | 70° |
| 2026-05-06 14:06 | 48.68850 | 9.20095 | 1293 ft | 7 kts | 73° |
| 2026-05-06 14:07 | 48.68865 | 9.20175 | 1291 ft | 9 kts | 75° |
| 2026-05-06 14:07 | 48.68885 | 9.20284 | 1289 ft | 12 kts | 74° |
| 2026-05-06 14:07 | 48.68914 | 9.20431 | 1286 ft | 17 kts | 73° |
| 2026-05-06 14:07 | 48.68952 | 9.20631 | 1280 ft | 22 kts | 74° |
| 2026-05-06 14:08 | 48.68996 | 9.20865 | 1276 ft | 24 kts | 74° |
| 2026-05-06 14:08 | 48.69043 | 9.21114 | 1270 ft | 24 kts | 73° |
| 2026-05-06 14:08 | 48.69089 | 9.21345 | 1263 ft | 22 kts | 75° |
| 2026-05-06 14:08 | 48.69128 | 9.21560 | 1261 ft | 20 kts | 73° |
| 2026-05-06 14:09 | 48.69165 | 9.21753 | 1262 ft | 18 kts | 74° |
| 2026-05-06 14:09 | 48.69198 | 9.21928 | 1256 ft | 16 kts | 74° |
| 2026-05-06 14:09 | 48.69228 | 9.22083 | 1256 ft | 14 kts | 74° |
| 2026-05-06 14:09 | 48.69254 | 9.22220 | 1249 ft | 13 kts | 74° |
| 2026-05-06 14:10 | 48.69278 | 9.22351 | 1239 ft | 15 kts | 74° |
| 2026-05-06 14:10 | 48.69311 | 9.22525 | 1250 ft | 20 kts | 74° |
| 2026-05-06 14:10 | 48.69353 | 9.22750 | 1231 ft | 25 kts | 74° |
| 2026-05-06 14:10 | 48.69399 | 9.22988 | 1226 ft | 22 kts | 74° |
| 2026-05-06 14:11 | 48.69440 | 9.23204 | 1221 ft | 20 kts | 74° |
| 2026-05-06 14:11 | 48.69476 | 9.23389 | 1218 ft | 17 kts | 74° |
| 2026-05-06 14:11 | 48.69505 | 9.23548 | 1214 ft | 15 kts | 75° |
| 2026-05-06 14:11 | 48.69531 | 9.23684 | 1212 ft | 12 kts | 73° |
| 2026-05-06 14:12 | 48.69555 | 9.23807 | 1209 ft | 14 kts | 74° |
| 2026-05-06 14:12 | 48.69587 | 9.23977 | 1206 ft | 19 kts | 74° |
| 2026-05-06 14:12 | 48.69601 | 9.24176 | 1199 ft | 18 kts | 114° |
| 2026-05-06 14:12 | 48.69558 | 9.24278 | 1194 ft | 17 kts | 135° |
| 2026-05-06 14:13 | 48.69452 | 9.24336 | 1190 ft | 15 kts | 167° |
| 2026-05-06 14:13 | 48.69387 | 9.24302 | 1191 ft | 9 kts | 247° |
| 2026-05-06 14:13 | 48.69382 | 9.24273 | 1192 ft | 3 kts | 254° |
| 2026-05-06 14:13 | 48.69305 | 9.23865 | 1200 ft | 78 kts | 254° |
| 2026-05-06 14:14 | 48.69094 | 9.22766 | 1227 ft | 136 kts | 256° |
| 2026-05-06 14:14 | 48.68828 | 9.21332 | 1817 ft | 143 kts | 258° |
| 2026-05-06 14:14 | 48.68561 | 9.19855 | 2545 ft | 149 kts | 255° |
| 2026-05-06 14:14 | 48.68259 | 9.18253 | 3007 ft | 168 kts | 253° |
| 2026-05-06 14:15 | 48.67910 | 9.16473 | 3459 ft | 186 kts | 254° |
| 2026-05-06 14:15 | 48.67519 | 9.14488 | 3849 ft | 209 kts | 252° |
| 2026-05-06 14:15 | 48.67080 | 9.12284 | 4574 ft | 227 kts | 254° |
| 2026-05-06 14:15 | 48.66889 | 9.09833 | 5298 ft | 247 kts | 273° |
| 2026-05-06 14:16 | 48.67373 | 9.07252 | 6171 ft | 262 kts | 294° |
| 2026-05-06 14:16 | 48.68180 | 9.04761 | 7224 ft | 266 kts | 293° |
| 2026-05-06 14:16 | 48.68821 | 9.02100 | 8247 ft | 272 kts | 289° |
| 2026-05-06 14:16 | 48.69789 | 8.99590 | 9197 ft | 284 kts | 313° |
| 2026-05-06 14:17 | 48.71452 | 8.97901 | 10061 ft | 299 kts | 336° |
| 2026-05-06 14:17 | 48.73565 | 8.97276 | 10473 ft | 324 kts | 1° |
| 2026-05-06 14:17 | 48.75822 | 8.97856 | 11213 ft | 334 kts | 12° |
| 2026-05-06 14:17 | 48.78108 | 8.98617 | 12088 ft | 339 kts | 12° |
| 2026-05-06 14:18 | 48.80430 | 8.99386 | 12920 ft | 345 kts | 12° |
| 2026-05-06 14:18 | 48.82791 | 9.00164 | 13862 ft | 349 kts | 13° |
| 2026-05-06 14:18 | 48.85182 | 9.00953 | 14690 ft | 355 kts | 12° |
| 2026-05-06 14:18 | 48.87609 | 9.01753 | 15469 ft | 359 kts | 12° |
| 2026-05-06 14:19 | 48.90071 | 9.02558 | 16136 ft | 365 kts | 12° |
| 2026-05-06 14:19 | 48.92562 | 9.03368 | 16518 ft | 366 kts | 12° |
| 2026-05-06 14:19 | 48.95067 | 9.04192 | 16914 ft | 369 kts | 12° |
| 2026-05-06 14:19 | 48.97589 | 9.05036 | 17309 ft | 373 kts | 12° |
| 2026-05-06 14:20 | 49.00102 | 9.05888 | 17611 ft | 376 kts | 12° |
| 2026-05-06 14:20 | 49.02665 | 9.06757 | 17766 ft | 377 kts | 12° |
| 2026-05-06 14:20 | 49.05212 | 9.07613 | 17797 ft | 377 kts | 12° |
| 2026-05-06 14:20 | 49.07792 | 9.08478 | 17789 ft | 380 kts | 12° |
| 2026-05-06 14:21 | 49.10376 | 9.09342 | 17795 ft | 381 kts | 12° |
| 2026-05-06 14:21 | 49.12965 | 9.10203 | 17794 ft | 381 kts | 12° |
| 2026-05-06 14:21 | 49.15557 | 9.11067 | 17793 ft | 381 kts | 12° |
| 2026-05-06 14:21 | 49.18149 | 9.11933 | 17794 ft | 381 kts | 11° |
| 2026-05-06 14:22 | 49.20737 | 9.12799 | 17793 ft | 380 kts | 12° |
| 2026-05-06 14:22 | 49.23323 | 9.13669 | 17781 ft | 380 kts | 12° |
| 2026-05-06 14:22 | 49.25873 | 9.14529 | 17500 ft | 379 kts | 12° |
| 2026-05-06 14:22 | 49.28437 | 9.15392 | 17239 ft | 377 kts | 11° |
| 2026-05-06 14:23 | 49.30992 | 9.16252 | 16973 ft | 375 kts | 11° |
| 2026-05-06 14:23 | 49.33535 | 9.17108 | 16595 ft | 373 kts | 11° |
| 2026-05-06 14:23 | 49.36065 | 9.17961 | 16141 ft | 371 kts | 12° |
| 2026-05-06 14:23 | 49.38572 | 9.18810 | 15677 ft | 367 kts | 12° |
| 2026-05-06 14:24 | 49.41050 | 9.19648 | 15388 ft | 359 kts | 11° |
| 2026-05-06 14:24 | 49.43423 | 9.20455 | 15246 ft | 338 kts | 11° |
| 2026-05-06 14:24 | 49.45672 | 9.21228 | 14846 ft | 326 kts | 12° |
| 2026-05-06 14:24 | 49.47867 | 9.21980 | 14276 ft | 321 kts | 11° |
| 2026-05-06 14:25 | 49.50039 | 9.22719 | 13688 ft | 319 kts | 11° |
| 2026-05-06 14:25 | 49.52197 | 9.23450 | 13182 ft | 316 kts | 11° |
| 2026-05-06 14:25 | 49.54336 | 9.24171 | 12791 ft | 315 kts | 11° |
| 2026-05-06 14:25 | 49.56477 | 9.24896 | 12401 ft | 315 kts | 11° |
| 2026-05-06 14:26 | 49.58619 | 9.25626 | 12012 ft | 314 kts | 11° |
| 2026-05-06 14:26 | 49.60745 | 9.26349 | 11613 ft | 314 kts | 10° |
| 2026-05-06 14:26 | 49.62884 | 9.27076 | 11242 ft | 312 kts | 11° |
| 2026-05-06 14:26 | 49.64970 | 9.27785 | 10863 ft | 311 kts | 11° |
| 2026-05-06 14:27 | 49.67059 | 9.28501 | 10647 ft | 304 kts | 10° |
| 2026-05-06 14:27 | 49.69127 | 9.29062 | 10386 ft | 300 kts | 0° |
| 2026-05-06 14:27 | 49.71202 | 9.28989 | 10148 ft | 297 kts | 355° |
| 2026-05-06 14:27 | 49.73258 | 9.28796 | 9907 ft | 296 kts | 354° |
| 2026-05-06 14:28 | 49.75317 | 9.28599 | 9778 ft | 295 kts | 354° |
| 2026-05-06 14:28 | 49.77366 | 9.28414 | 9783 ft | 295 kts | 354° |
| 2026-05-06 14:28 | 49.79403 | 9.28224 | 9779 ft | 295 kts | 354° |
| 2026-05-06 14:28 | 49.81451 | 9.28021 | 9780 ft | 295 kts | 354° |
| 2026-05-06 14:29 | 49.83501 | 9.27823 | 9782 ft | 295 kts | 354° |
| 2026-05-06 14:29 | 49.85546 | 9.27632 | 9782 ft | 296 kts | 354° |
| 2026-05-06 14:29 | 49.87605 | 9.27432 | 9777 ft | 296 kts | 354° |
| 2026-05-06 14:29 | 49.89660 | 9.27210 | 9777 ft | 295 kts | 351° |
| 2026-05-06 14:30 | 49.91576 | 9.26274 | 9609 ft | 292 kts | 328° |
| 2026-05-06 14:30 | 49.93296 | 9.24653 | 9240 ft | 287 kts | 324° |
| 2026-05-06 14:30 | 49.94973 | 9.22986 | 8851 ft | 286 kts | 324° |
| 2026-05-06 14:30 | 49.96640 | 9.21306 | 8446 ft | 285 kts | 324° |
| 2026-05-06 14:31 | 49.98289 | 9.19641 | 8064 ft | 283 kts | 324° |
| 2026-05-06 14:31 | 49.99930 | 9.17966 | 7693 ft | 281 kts | 324° |
| 2026-05-06 14:31 | 50.01555 | 9.16299 | 7310 ft | 279 kts | 324° |
| 2026-05-06 14:31 | 50.03171 | 9.14654 | 6917 ft | 277 kts | 324° |
| 2026-05-06 14:32 | 50.04743 | 9.12930 | 6495 ft | 274 kts | 312° |
| 2026-05-06 14:32 | 50.05753 | 9.10514 | 6110 ft | 265 kts | 288° |
| 2026-05-06 14:32 | 50.06342 | 9.07814 | 5626 ft | 264 kts | 284° |
| 2026-05-06 14:32 | 50.06872 | 9.05074 | 5211 ft | 263 kts | 284° |
| 2026-05-06 14:33 | 50.07388 | 9.02405 | 5014 ft | 251 kts | 284° |
| 2026-05-06 14:33 | 50.07885 | 8.99901 | 4893 ft | 235 kts | 284° |
| 2026-05-06 14:33 | 50.08365 | 8.97495 | 4670 ft | 230 kts | 284° |
| 2026-05-06 14:33 | 50.08836 | 8.95138 | 4406 ft | 225 kts | 284° |
| 2026-05-06 14:34 | 50.09282 | 8.92815 | 4161 ft | 222 kts | 284° |
| 2026-05-06 14:34 | 50.09716 | 8.90571 | 4014 ft | 215 kts | 283° |
| 2026-05-06 14:34 | 50.10143 | 8.88412 | 3995 ft | 202 kts | 284° |
| 2026-05-06 14:34 | 50.10366 | 8.86340 | 3972 ft | 187 kts | 266° |
| 2026-05-06 14:35 | 50.10110 | 8.84433 | 3815 ft | 176 kts | 249° |
| 2026-05-06 14:35 | 50.09696 | 8.82686 | 3596 ft | 169 kts | 249° |
| 2026-05-06 14:35 | 50.09298 | 8.81001 | 3393 ft | 163 kts | 249° |
| 2026-05-06 14:35 | 50.08911 | 8.79363 | 3169 ft | 159 kts | 250° |
| 2026-05-06 14:36 | 50.08532 | 8.77757 | 2963 ft | 157 kts | 249° |
| 2026-05-06 14:36 | 50.08156 | 8.76166 | 2749 ft | 156 kts | 249° |
| 2026-05-06 14:36 | 50.07785 | 8.74594 | 2543 ft | 155 kts | 251° |
| 2026-05-06 14:36 | 50.07412 | 8.73017 | 2346 ft | 155 kts | 251° |
| 2026-05-06 14:37 | 50.07048 | 8.71481 | 2133 ft | 151 kts | 251° |
| 2026-05-06 14:37 | 50.06687 | 8.69955 | 1919 ft | 149 kts | 251° |
| 2026-05-06 14:37 | 50.06297 | 8.68307 | 1721 ft | 162 kts | 250° |
| 2026-05-06 14:37 | 50.05930 | 8.66763 | 1530 ft | 142 kts | 250° |
| 2026-05-06 14:38 | 50.05602 | 8.65393 | 1322 ft | 132 kts | 251° |
| 2026-05-06 14:38 | 50.05288 | 8.64080 | 1108 ft | 128 kts | 250° |
| 2026-05-06 14:38 | 50.04990 | 8.62804 | 955 ft | 123 kts | 252° |
| 2026-05-06 14:38 | 50.04674 | 8.61481 | 797 ft | 128 kts | 250° |
| 2026-05-06 14:39 | 50.04375 | 8.60223 | 637 ft | 126 kts | 250° |
| 2026-05-06 14:39 | 50.04074 | 8.58968 | 455 ft | 122 kts | 250° |
| 2026-05-06 14:39 | 50.03796 | 8.57785 | 369 ft | 109 kts | 250° |
| 2026-05-06 14:39 | 50.03579 | 8.56865 | 355 ft | 67 kts | 250° |
| 2026-05-06 14:40 | 50.03455 | 8.56344 | 354 ft | 44 kts | 252° |
| 2026-05-06 14:40 | 50.03449 | 8.55959 | 354 ft | 27 kts | 280° |
| 2026-05-06 14:40 | 50.03474 | 8.55723 | 346 ft | 21 kts | 279° |
| 2026-05-06 14:40 | 50.03491 | 8.55498 | 353 ft | 21 kts | 264° |
| 2026-05-06 14:41 | 50.03446 | 8.55279 | 354 ft | 22 kts | 249° |
| 2026-05-06 14:41 | 50.03391 | 8.55046 | 353 ft | 24 kts | 250° |
| 2026-05-06 14:41 | 50.03330 | 8.54796 | 336 ft | 26 kts | 249° |
| 2026-05-06 14:41 | 50.03273 | 8.54546 | 337 ft | 15 kts | 262° |
| 2026-05-06 14:42 | 50.03352 | 8.54457 | 335 ft | 16 kts | 340° |
| 2026-05-06 14:42 | 50.03460 | 8.54395 | 344 ft | 18 kts | 340° |
| 2026-05-06 14:42 | 50.03598 | 8.54316 | 348 ft | 16 kts | 341° |
| 2026-05-06 14:42 | 50.03644 | 8.54315 | 350 ft | 0 kts | 17° |
| 2026-05-06 14:43 | 50.03657 | 8.54329 | 348 ft | 5 kts | 40° |
| 2026-05-06 14:44 | 50.03682 | 8.54415 | 350 ft | 13 kts | 69° |
| 2026-05-06 14:44 | 50.03722 | 8.54584 | 354 ft | 20 kts | 70° |
| 2026-05-06 14:44 | 50.03775 | 8.54803 | 354 ft | 22 kts | 69° |
| 2026-05-06 14:45 | 50.03871 | 8.55210 | 358 ft | 21 kts | 70° |
| 2026-05-06 14:45 | 50.03928 | 8.55447 | 357 ft | 25 kts | 68° |
| 2026-05-06 14:45 | 50.03993 | 8.55716 | 349 ft | 28 kts | 70° |
| 2026-05-06 14:45 | 50.04062 | 8.56005 | 354 ft | 29 kts | 69° |
| 2026-05-06 14:46 | 50.04125 | 8.56268 | 356 ft | 23 kts | 69° |
| 2026-05-06 14:46 | 50.04178 | 8.56492 | 357 ft | 21 kts | 69° |
| 2026-05-06 14:46 | 50.04226 | 8.56692 | 357 ft | 18 kts | 71° |
| 2026-05-06 14:46 | 50.04280 | 8.56805 | 360 ft | 11 kts | 20° |
| 2026-05-06 14:47 | 50.04353 | 8.56829 | 360 ft | 10 kts | 12° |
| 2026-05-06 14:47 | 50.04424 | 8.56848 | 362 ft | 12 kts | 7° |
| 2026-05-06 14:47 | 50.04530 | 8.56883 | 359 ft | 16 kts | 13° |
| 2026-05-06 14:47 | 50.04580 | 8.56901 | 360 ft | 0 kts | 13° |
| 2026-05-06 14:48 | 50.04601 | 8.56909 | 356 ft | 5 kts | 14° |
| 2026-05-06 14:48 | 50.04627 | 8.56905 | 363 ft | 2 kts | 309° |
| 2026-05-06 14:48 | 50.04639 | 8.56863 | 356 ft | 7 kts | 295° |
| 2026-05-06 14:48 | 50.04655 | 8.56809 | 358 ft | 1 kts | 295° |
| 2026-05-06 14:49 | 50.04655 | 8.56808 | 357 ft | 0 kts | 295° |